Time;durP1;ratioP1;P1;durP2;ratioP2;P2;SDS_P1;SDS_P2;PMS_P1;PMS_P2;Temp;Humidity;BMP_temperature;BMP_pressure;BME280_temperature;BME280_humidity;BME280_pressure;Samples;Min_cycle;Max_cycle;Signal;HPM_P1;HPM_P2
2022/10/18 00:01:14;;;;;;;112.45;41.50;;;12.50;99.90;;;;;;5073689;28;20445;-29
2022/10/18 00:03:40;;;;;;;89.15;37.42;;;12.50;99.90;;;;;;5073780;28;20045;-30
2022/10/18 00:06:08;;;;;;;91.07;38.42;;;12.60;99.90;;;;;;5073483;28;20508;-30
2022/10/18 00:08:35;;;;;;;116.00;41.30;;;12.60;99.90;;;;;;5072751;28;20055;-31
2022/10/18 00:11:02;;;;;;;96.68;40.25;;;12.50;99.90;;;;;;5073753;28;20075;-30
2022/10/18 00:13:28;;;;;;;103.57;41.22;;;12.50;99.90;;;;;;5074155;28;20083;-29
2022/10/18 00:15:57;;;;;;;143.43;45.45;;;12.50;99.90;;;;;;5073624;28;20067;-30
2022/10/18 00:18:24;;;;;;;159.18;47.33;;;12.40;99.90;;;;;;5073494;28;20036;-30
2022/10/18 00:21:02;;;;;;;129.35;46.03;;;12.40;99.90;;;;;;5073246;28;20483;-30
2022/10/18 00:23:29;;;;;;;157.68;48.88;;;12.50;99.90;;;;;;5074133;28;20048;-31
2022/10/18 00:26:12;;;;;;;122.22;42.58;;;12.40;99.90;;;;;;5073520;28;20044;-31
2022/10/18 00:28:38;;;;;;;;;;;12.50;99.90;;;;;;5073981;28;20490;-30
2022/10/18 00:31:10;;;;;;;147.35;46.55;;;12.40;99.90;;;;;;5073484;28;19924;-30
2022/10/18 00:33:36;;;;;;;165.30;49.88;;;12.40;99.90;;;;;;5074009;28;20421;-30
2022/10/18 00:36:01;;;;;;;178.68;50.25;;;12.30;99.90;;;;;;5072460;28;20045;-30
2022/10/18 00:38:27;;;;;;;179.38;51.42;;;12.30;99.90;;;;;;5072213;28;20098;-30
2022/10/18 00:40:53;;;;;;;189.98;50.35;;;12.30;99.90;;;;;;5073362;28;20135;-31
2022/10/18 00:43:18;;;;;;;321.08;62.03;;;12.20;99.90;;;;;;5073942;28;20088;-29
2022/10/18 00:45:44;;;;;;;426.65;67.80;;;12.20;99.90;;;;;;5074146;28;20378;-29
2022/10/18 00:48:12;;;;;;;594.30;80.22;;;12.10;99.90;;;;;;5072615;28;20421;-31
2022/10/18 00:50:39;;;;;;;743.80;73.13;;;12.00;99.90;;;;;;5072645;28;20102;-29
2022/10/18 00:53:10;;;;;;;775.80;80.45;;;12.00;99.90;;;;;;5071632;28;20059;-31
2022/10/18 00:55:36;;;;;;;859.47;95.53;;;11.90;99.90;;;;;;5073826;28;20052;-30
2022/10/18 00:58:03;;;;;;;982.47;104.82;;;11.90;99.90;;;;;;5072829;28;20117;-30
2022/10/18 01:00:29;;;;;;;903.22;106.47;;;11.90;99.90;;;;;;5073098;28;20056;-30
2022/10/18 01:02:56;;;;;;;607.70;84.50;;;11.90;99.90;;;;;;5073206;28;20053;-31
2022/10/18 01:05:22;;;;;;;491.20;72.97;;;12.10;99.90;;;;;;5072149;28;20506;-30
2022/10/18 01:08:22;;;;;;;712.20;96.50;;;12.10;99.90;;;;;;5073675;28;20055;-30
2022/10/18 01:11:00;;;;;;;635.45;87.93;;;12.20;99.90;;;;;;5073068;28;20136;-30
2022/10/18 01:13:35;;;;;;;641.67;86.47;;;12.30;99.90;;;;;;5073667;28;20127;-30
2022/10/18 01:16:32;;;;;;;748.85;94.45;;;12.30;99.90;;;;;;5072949;28;20088;-30
2022/10/18 01:19:00;;;;;;;639.20;85.78;;;12.30;99.90;;;;;;5072987;28;20057;-31
2022/10/18 01:21:38;;;;;;;618.28;82.93;;;12.30;99.90;;;;;;5073030;28;20059;-29
2022/10/18 01:24:44;;;;;;;838.03;100.93;;;12.30;99.90;;;;;;5074540;28;20048;-29
2022/10/18 01:27:38;;;;;;;699.83;87.32;;;12.30;99.90;;;;;;5077187;28;20123;-30
2022/10/18 01:30:37;;;;;;;466.38;71.43;;;12.20;99.90;;;;;;5076572;28;20105;-31
2022/10/18 01:33:12;;;;;;;758.75;90.18;;;12.20;99.90;;;;;;5077335;28;20044;-29
2022/10/18 01:35:43;;;;;;;527.75;77.50;;;12.20;99.90;;;;;;5077063;28;20051;-29
2022/10/18 01:38:12;;;;;;;701.92;88.35;;;12.20;99.90;;;;;;5076899;28;20043;-29
2022/10/18 01:40:41;;;;;;;799.33;94.32;;;12.20;99.90;;;;;;5076359;28;20198;-29
2022/10/18 01:43:09;;;;;;;905.72;97.95;;;12.20;99.90;;;;;;5076336;28;20056;-30
2022/10/18 01:45:35;;;;;;;847.35;90.47;;;12.10;99.90;;;;;;5076280;28;20050;-29
2022/10/18 01:48:01;;;;;;;677.17;85.18;;;12.10;99.90;;;;;;5075533;28;20052;-29
2022/10/18 01:50:33;;;;;;;766.50;87.80;;;12.20;99.90;;;;;;5076173;28;20054;-29
2022/10/18 01:52:59;;;;;;;742.80;86.35;;;12.30;99.90;;;;;;5076112;28;20383;-29
2022/10/18 01:55:37;;;;;;;787.22;91.13;;;12.30;99.90;;;;;;5076158;28;20057;-30
2022/10/18 01:58:35;;;;;;;595.08;73.60;;;12.40;99.90;;;;;;5076016;28;20043;-29
2022/10/18 02:01:18;;;;;;;417.33;59.28;;;12.40;99.90;;;;;;5061263;28;20091;-31
2022/10/18 02:03:47;;;;;;;670.10;83.60;;;12.50;99.90;;;;;;5076008;28;20494;-31
2022/10/18 02:06:21;;;;;;;420.65;59.63;;;12.50;99.90;;;;;;5075910;28;20282;-30
2022/10/18 02:08:59;;;;;;;550.88;70.70;;;12.50;99.90;;;;;;5074844;28;20502;-30
2022/10/18 02:11:27;;;;;;;589.35;74.82;;;12.40;99.90;;;;;;5075918;28;20059;-30
2022/10/18 02:13:56;;;;;;;627.65;78.60;;;12.40;99.90;;;;;;5075761;28;20109;-30
2022/10/18 02:16:44;;;;;;;456.25;64.97;;;12.40;99.90;;;;;;5075682;28;20049;-30
2022/10/18 02:19:30;;;;;;;674.42;79.22;;;12.40;99.90;;;;;;5075935;28;20068;-31
2022/10/18 02:21:57;;;;;;;632.40;82.68;;;12.40;99.90;;;;;;5076006;28;20044;-31
2022/10/18 02:24:36;;;;;;;664.30;80.03;;;12.40;99.90;;;;;;5075835;28;20047;-30
2022/10/18 02:27:02;;;;;;;556.70;65.47;;;12.40;99.90;;;;;;5075807;28;20063;-30
2022/10/18 02:29:29;;;;;;;651.47;79.60;;;12.30;99.90;;;;;;5075464;28;20045;-31
2022/10/18 02:32:03;;;;;;;820.38;96.30;;;12.30;99.90;;;;;;5075688;28;20052;-31
2022/10/18 02:34:37;;;;;;;659.10;84.60;;;12.30;99.90;;;;;;5075063;28;20040;-31
2022/10/18 02:37:04;;;;;;;419.27;64.45;;;12.30;99.90;;;;;;5075013;28;20067;-30
2022/10/18 02:39:34;;;;;;;583.72;78.63;;;12.30;99.90;;;;;;5075204;28;20105;-31
2022/10/18 02:42:00;;;;;;;643.25;79.03;;;12.30;99.90;;;;;;5075047;28;20055;-31
2022/10/18 02:44:26;;;;;;;676.78;85.10;;;12.20;99.90;;;;;;5075636;28;20083;-32
2022/10/18 02:46:52;;;;;;;595.50;85.53;;;12.20;99.90;;;;;;5075105;28;20091;-31
2022/10/18 02:49:17;;;;;;;387.02;61.88;;;12.20;99.90;;;;;;5074422;28;20045;-31
2022/10/18 02:51:43;;;;;;;400.88;64.38;;;12.10;99.90;;;;;;5074787;28;20101;-32
2022/10/18 02:54:09;;;;;;;561.05;78.97;;;12.10;99.90;;;;;;5075826;28;20201;-30
2022/10/18 02:56:35;;;;;;;624.08;83.28;;;12.00;99.90;;;;;;5075340;28;20395;-30
2022/10/18 02:59:01;;;;;;;430.00;61.00;;;12.00;99.90;;;;;;5074853;28;20048;-30
2022/10/18 03:01:26;;;;;;;678.63;86.03;;;11.90;99.90;;;;;;5073416;28;20307;-31
2022/10/18 03:03:52;;;;;;;838.15;92.70;;;11.80;99.90;;;;;;5073566;28;20083;-31
2022/10/18 03:06:18;;;;;;;733.22;86.30;;;11.80;99.90;;;;;;5075209;28;20149;-30
2022/10/18 03:08:44;;;;;;;634.05;75.80;;;11.80;99.90;;;;;;5073499;28;20051;-30
2022/10/18 03:11:10;;;;;;;612.42;72.50;;;11.70;99.90;;;;;;5073949;28;20037;-32
2022/10/18 03:13:35;;;;;;;670.55;82.38;;;11.70;99.90;;;;;;5074543;28;20114;-31
2022/10/18 03:16:01;;;;;;;630.33;79.22;;;11.80;99.90;;;;;;5074526;28;20040;-30
2022/10/18 03:18:27;;;;;;;759.50;81.93;;;11.70;99.90;;;;;;5074357;28;20066;-30
2022/10/18 03:20:52;;;;;;;632.60;69.72;;;11.70;99.90;;;;;;5074364;28;20105;-30
2022/10/18 03:23:18;;;;;;;781.85;81.97;;;11.70;99.90;;;;;;5074890;28;20040;-30
2022/10/18 03:25:44;;;;;;;708.58;87.50;;;11.80;99.90;;;;;;5074361;28;20051;-31
2022/10/18 03:28:09;;;;;;;565.03;71.43;;;11.70;99.90;;;;;;5074310;28;20043;-29
2022/10/18 03:30:35;;;;;;;671.70;73.40;;;11.70;99.90;;;;;;5074286;28;20044;-31
2022/10/18 03:33:01;;;;;;;736.58;76.78;;;11.60;99.90;;;;;;5073038;28;20044;-31
2022/10/18 03:35:26;;;;;;;618.72;78.18;;;11.60;99.90;;;;;;5074007;28;20075;-31
2022/10/18 03:37:52;;;;;;;536.55;68.50;;;11.60;99.90;;;;;;5074012;28;20045;-31
2022/10/18 03:40:18;;;;;;;715.20;79.22;;;11.60;99.90;;;;;;5074078;28;20145;-31
2022/10/18 03:42:44;;;;;;;713.20;86.35;;;11.70;99.90;;;;;;5074115;28;20055;-30
2022/10/18 03:45:09;;;;;;;635.22;81.53;;;11.70;99.90;;;;;;5073986;28;20044;-31
2022/10/18 03:47:35;;;;;;;661.13;82.85;;;11.60;99.90;;;;;;5073745;28;20045;-31
2022/10/18 03:50:01;;;;;;;707.05;89.75;;;11.60;99.90;;;;;;5072852;28;20131;-30
2022/10/18 03:52:26;;;;;;;799.08;87.95;;;11.60;99.90;;;;;;5072879;28;20048;-31
2022/10/18 03:54:52;;;;;;;525.50;66.80;;;11.50;99.90;;;;;;5056527;28;20036;-31
2022/10/18 03:57:18;;;;;;;680.90;83.63;;;11.50;99.90;;;;;;5074341;28;20040;-31
2022/10/18 03:59:43;;;;;;;461.65;61.08;;;11.50;99.90;;;;;;5073009;28;20395;-31
2022/10/18 04:02:09;;;;;;;564.70;72.47;;;11.60;99.90;;;;;;5073792;28;20459;-32
2022/10/18 04:04:35;;;;;;;728.42;79.15;;;11.40;99.90;;;;;;5073784;28;20050;-32
2022/10/18 04:07:00;;;;;;;530.25;68.88;;;11.40;99.90;;;;;;5073055;28;20386;-31
2022/10/18 04:09:26;;;;;;;531.38;68.85;;;11.30;99.90;;;;;;5073679;28;20048;-31
2022/10/18 04:11:52;;;;;;;532.92;68.38;;;11.30;99.90;;;;;;5073730;28;20053;-31
2022/10/18 04:14:20;;;;;;;548.00;72.82;;;11.20;99.90;;;;;;5072457;28;20402;-31
2022/10/18 04:16:46;;;;;;;555.85;65.80;;;11.20;99.90;;;;;;5073872;28;20075;-31
2022/10/18 04:19:11;;;;;;;654.80;72.15;;;11.20;99.90;;;;;;5074455;28;20460;-31
2022/10/18 04:21:37;;;;;;;688.05;68.82;;;11.10;99.90;;;;;;5074210;28;20394;-31
2022/10/18 04:24:03;;;;;;;670.85;76.47;;;11.10;99.90;;;;;;5073557;28;20102;-32
2022/10/18 04:26:29;;;;;;;380.90;49.50;;;11.10;99.90;;;;;;5073564;28;20048;-32
2022/10/18 04:28:54;;;;;;;316.63;44.88;;;11.00;99.90;;;;;;5072328;28;20044;-32
2022/10/18 04:31:20;;;;;;;716.17;84.00;;;11.00;99.90;;;;;;5072536;28;20044;-32
2022/10/18 04:33:46;;;;;;;517.58;65.38;;;10.90;99.90;;;;;;5073509;28;20052;-31
2022/10/18 04:36:11;;;;;;;541.00;65.53;;;11.00;99.90;;;;;;5073441;28;20044;-31
2022/10/18 04:38:37;;;;;;;777.97;78.72;;;10.90;99.90;;;;;;5073405;28;20047;-31
2022/10/18 04:41:03;;;;;;;552.03;68.25;;;10.90;99.90;;;;;;5073418;28;20047;-31
2022/10/18 04:43:28;;;;;;;605.15;77.05;;;10.90;99.90;;;;;;5073381;28;20048;-31
2022/10/18 04:45:54;;;;;;;701.95;73.45;;;10.80;99.90;;;;;;5073647;28;20045;-31
2022/10/18 04:48:20;;;;;;;814.97;80.88;;;10.80;99.90;;;;;;5073549;28;20041;-31
2022/10/18 04:50:50;;;;;;;548.28;61.13;;;10.70;99.90;;;;;;5073339;28;20051;-31
2022/10/18 04:53:17;;;;;;;764.25;82.32;;;10.70;99.90;;;;;;5071904;28;20052;-31
2022/10/18 04:55:44;;;;;;;501.08;63.15;;;10.70;99.90;;;;;;5073213;28;20059;-32
2022/10/18 04:58:10;;;;;;;673.88;77.90;;;10.70;99.90;;;;;;5073289;28;20128;-31
2022/10/18 05:00:37;;;;;;;444.45;55.88;;;10.70;99.90;;;;;;5076729;28;20554;-31
2022/10/18 05:03:03;;;;;;;798.55;82.68;;;10.70;99.90;;;;;;5077094;28;20153;-32
2022/10/18 05:05:28;;;;;;;685.90;74.03;;;10.70;99.90;;;;;;5076055;28;20088;-32
2022/10/18 05:07:54;;;;;;;823.85;79.28;;;10.70;99.90;;;;;;5076991;28;20075;-31
2022/10/18 05:10:20;;;;;;;794.72;73.75;;;10.60;99.90;;;;;;5076950;28;20048;-31
2022/10/18 05:12:45;;;;;;;631.45;65.32;;;10.60;99.90;;;;;;5077151;28;20463;-33
2022/10/18 05:15:11;;;;;;;776.63;73.03;;;10.50;99.90;;;;;;5076834;28;20471;-31
2022/10/18 05:17:37;;;;;;;628.55;62.58;;;10.50;99.90;;;;;;5075844;28;20044;-31
2022/10/18 05:20:03;;;;;;;632.22;63.58;;;10.50;99.90;;;;;;5059197;28;20470;-32
2022/10/18 05:22:29;;;;;;;602.50;66.22;;;10.40;99.90;;;;;;5076140;28;20040;-31
2022/10/18 05:24:54;;;;;;;737.97;67.53;;;10.40;99.90;;;;;;5076691;28;20056;-33
2022/10/18 05:27:20;;;;;;;744.85;72.32;;;10.40;99.90;;;;;;5076639;28;20041;-31
2022/10/18 05:29:46;;;;;;;430.20;49.40;;;10.40;99.90;;;;;;5077381;28;20040;-31
2022/10/18 05:32:11;;;;;;;558.55;59.75;;;10.40;99.90;;;;;;5076553;28;20498;-32
2022/10/18 05:34:37;;;;;;;563.88;59.65;;;10.40;99.90;;;;;;5077019;28;20049;-32
2022/10/18 05:37:03;;;;;;;575.20;57.50;;;10.30;99.90;;;;;;5076375;28;20044;-31
2022/10/18 05:39:28;;;;;;;451.15;51.70;;;10.20;99.90;;;;;;5076672;28;20044;-31
2022/10/18 05:41:54;;;;;;;547.35;60.28;;;10.20;99.90;;;;;;5076358;28;20102;-32
2022/10/18 05:44:20;;;;;;;522.58;57.63;;;10.10;99.90;;;;;;5076346;28;20040;-31
2022/10/18 05:46:45;;;;;;;530.65;55.17;;;10.00;99.90;;;;;;5077120;28;20406;-32
2022/10/18 05:49:12;;;;;;;547.00;55.40;;;9.90;99.90;;;;;;5076521;28;20497;-31
2022/10/18 05:51:37;;;;;;;457.52;51.30;;;9.90;99.90;;;;;;5075991;28;20087;-31
2022/10/18 05:54:03;;;;;;;530.83;51.53;;;9.80;99.90;;;;;;5077437;28;20088;-31
2022/10/18 05:56:29;;;;;;;716.45;68.28;;;9.80;99.90;;;;;;5076351;28;20123;-32
2022/10/18 05:58:55;;;;;;;622.47;61.22;;;9.80;99.90;;;;;;5075979;28;20131;-31
2022/10/18 06:01:20;;;;;;;653.92;57.85;;;9.70;99.90;;;;;;5075930;28;20048;-32
2022/10/18 06:03:46;;;;;;;608.10;55.50;;;9.70;99.90;;;;;;5075984;28;20048;-31
2022/10/18 06:06:13;;;;;;;549.67;56.97;;;9.80;99.90;;;;;;5075933;28;20048;-31
2022/10/18 06:08:40;;;;;;;325.35;39.03;;;9.60;99.90;;;;;;5075875;28;20127;-31
2022/10/18 06:11:11;;;;;;;236.38;34.28;;;9.60;99.90;;;;;;5075651;28;20090;-31
2022/10/18 06:13:42;;;;;;;553.45;52.65;;;9.50;99.90;;;;;;5075801;28;20052;-31
2022/10/18 06:16:08;;;;;;;463.15;46.17;;;9.50;99.90;;;;;;5074476;28;20063;-33
2022/10/18 06:18:33;;;;;;;348.60;43.58;;;9.50;99.90;;;;;;5075611;28;20467;-31
2022/10/18 06:20:59;;;;;;;506.13;48.85;;;9.40;99.90;;;;;;5075958;28;20046;-31
2022/10/18 06:23:28;;;;;;;340.23;41.20;;;9.30;99.90;;;;;;5075629;28;20406;-31
2022/10/18 06:26:02;;;;;;;373.33;42.55;;;9.30;99.90;;;;;;5075562;28;20053;-31
2022/10/18 06:28:28;;;;;;;314.25;37.83;;;9.20;99.90;;;;;;5076149;28;20076;-30
2022/10/18 06:30:55;;;;;;;715.15;58.40;;;9.10;99.90;;;;;;5075476;28;20055;-32
2022/10/18 06:33:21;;;;;;;541.15;48.97;;;9.00;99.90;;;;;;5074192;28;20048;-31
2022/10/18 06:35:59;;;;;;;615.47;51.55;;;8.90;99.90;;;;;;5076136;28;20040;-31
2022/10/18 06:38:25;;;;;;;475.80;43.00;;;8.80;99.90;;;;;;5075258;28;20040;-31
2022/10/18 06:40:51;;;;;;;841.40;59.45;;;8.70;99.90;;;;;;5075249;28;20044;-31
2022/10/18 06:43:16;;;;;;;852.38;49.72;;;8.70;99.90;;;;;;5075154;28;20559;-32
2022/10/18 06:45:42;;;;;;;784.08;45.80;;;8.60;99.90;;;;;;5075104;28;20131;-31
2022/10/18 06:48:08;;;;;;;873.65;50.03;;;8.50;99.90;;;;;;5074948;28;20064;-31
2022/10/18 06:50:33;;;;;;;712.00;47.45;;;8.50;99.90;;;;;;5075296;28;20048;-31
2022/10/18 06:53:00;;;;;;;685.72;73.65;;;8.40;99.90;;;;;;5075718;28;20110;-31
2022/10/18 06:55:26;;;;;;;572.72;54.05;;;8.50;99.90;;;;;;5075479;28;20053;-32
2022/10/18 06:57:52;;;;;;;411.00;39.35;;;8.50;99.90;;;;;;5074832;28;20103;-32
2022/10/18 07:00:18;;;;;;;513.35;41.08;;;8.60;99.90;;;;;;5075302;28;20056;-31
2022/10/18 07:02:43;;;;;;;492.40;40.90;;;8.50;99.90;;;;;;5074794;28;20049;-32
2022/10/18 07:05:10;;;;;;;340.55;36.97;;;8.60;99.90;;;;;;5073793;28;20041;-31
2022/10/18 07:07:36;;;;;;;273.35;36.72;;;8.60;99.90;;;;;;5074568;28;20052;-31
2022/10/18 07:10:03;;;;;;;320.88;41.75;;;8.60;99.90;;;;;;5074632;28;20048;-31
2022/10/18 07:12:30;;;;;;;178.38;30.20;;;8.60;99.90;;;;;;5073485;28;20059;-31
2022/10/18 07:14:55;;;;;;;163.50;33.42;;;8.60;99.90;;;;;;5075401;28;20044;-31
2022/10/18 07:17:21;;;;;;;130.02;33.60;;;8.70;99.90;;;;;;5074963;28;20356;-31
2022/10/18 07:19:47;;;;;;;157.25;34.80;;;8.60;99.90;;;;;;5074499;28;20055;-32
2022/10/18 07:22:12;;;;;;;102.18;27.67;;;8.70;99.90;;;;;;5072669;28;20051;-30
2022/10/18 07:24:38;;;;;;;153.85;28.98;;;8.70;99.90;;;;;;5074370;28;20045;-31
2022/10/18 07:27:04;;;;;;;151.80;34.08;;;8.80;99.90;;;;;;5074351;28;20569;-31
2022/10/18 07:29:30;;;;;;;105.78;28.55;;;8.80;99.90;;;;;;5074372;28;20048;-31
2022/10/18 07:31:56;;;;;;;161.98;34.53;;;8.90;99.90;;;;;;5074875;28;20044;-31
2022/10/18 07:34:22;;;;;;;145.43;35.25;;;8.90;99.90;;;;;;5074435;28;20045;-32
2022/10/18 07:36:48;;;;;;;118.60;33.00;;;9.00;99.90;;;;;;5074049;28;20101;-31
2022/10/18 07:39:13;;;;;;;86.00;28.35;;;9.10;99.90;;;;;;5074082;28;20036;-32
2022/10/18 07:41:39;;;;;;;89.88;27.92;;;9.10;99.90;;;;;;5074653;28;20132;-32
2022/10/18 07:44:05;;;;;;;50.67;23.40;;;9.20;99.90;;;;;;5074089;28;20047;-32
2022/10/18 07:46:31;;;;;;;45.00;22.70;;;9.20;99.90;;;;;;5073897;28;20504;-32
2022/10/18 07:48:59;;;;;;;49.08;21.55;;;9.30;99.90;;;;;;5074043;28;20041;-32
2022/10/18 07:51:26;;;;;;;47.45;24.92;;;9.50;99.90;;;;;;5073970;28;20048;-31
2022/10/18 07:53:52;;;;;;;55.05;25.15;;;9.60;99.90;;;;;;5072205;28;20063;-31
2022/10/18 07:56:20;;;;;;;54.78;25.17;;;9.70;99.90;;;;;;5073849;28;20048;-32
2022/10/18 07:58:51;;;;;;;46.20;22.75;;;9.90;99.90;;;;;;5073792;28;20044;-32
2022/10/18 08:01:18;;;;;;;45.90;22.90;;;9.90;99.90;;;;;;5072764;28;20048;-32
2022/10/18 08:03:43;;;;;;;47.22;19.10;;;10.00;99.90;;;;;;5074397;28;20059;-32
2022/10/18 08:06:12;;;;;;;40.95;18.65;;;10.20;99.90;;;;;;5073749;28;20049;-32
2022/10/18 08:08:39;;;;;;;43.22;20.67;;;10.20;99.90;;;;;;5073421;28;20498;-31
2022/10/18 08:11:10;;;;;;;36.78;18.58;;;10.40;99.90;;;;;;5072521;28;20483;-32
2022/10/18 08:13:36;;;;;;;30.75;17.13;;;10.50;99.90;;;;;;5074035;28;20451;-32
2022/10/18 08:16:07;;;;;;;38.05;15.63;;;10.60;99.90;;;;;;5073859;28;20040;-32
2022/10/18 08:18:34;;;;;;;26.92;12.95;;;10.70;99.90;;;;;;5074402;28;20040;-32
2022/10/18 08:21:01;;;;;;;23.77;10.68;;;10.90;99.90;;;;;;5073896;28;20037;-32
2022/10/18 08:23:27;;;;;;;23.90;11.23;;;11.00;99.90;;;;;;5074433;28;20059;-32
2022/10/18 08:25:53;;;;;;;26.05;11.50;;;11.20;99.90;;;;;;5073604;28;20062;-33
2022/10/18 08:28:18;;;;;;;22.42;10.80;;;11.20;99.90;;;;;;5074067;28;20127;-32
2022/10/18 08:30:44;;;;;;;29.33;12.02;;;11.30;99.90;;;;;;5073551;28;20044;-32
2022/10/18 08:33:10;;;;;;;26.35;10.70;;;11.40;99.90;;;;;;5073315;28;20101;-33
2022/10/18 08:35:36;;;;;;;29.05;9.63;;;11.50;99.90;;;;;;5077299;28;20037;-33
2022/10/18 08:38:02;;;;;;;27.17;8.60;;;11.60;99.90;;;;;;5077565;28;20040;-32
2022/10/18 08:40:29;;;;;;;27.55;8.95;;;11.60;99.90;;;;;;5076568;28;20055;-32
2022/10/18 08:43:17;;;;;;;22.10;8.15;;;11.70;99.90;;;;;;5078347;28;20048;-33
2022/10/18 08:45:43;;;;;;;27.38;7.63;;;11.80;99.90;;;;;;5077385;28;20075;-33
2022/10/18 08:48:33;;;;;;;17.00;5.50;;;12.00;99.90;;;;;;5077389;28;20045;-33
2022/10/18 08:51:00;;;;;;;17.33;4.80;;;12.20;99.90;;;;;;5077430;28;20045;-32
2022/10/18 08:53:53;;;;;;;21.30;6.10;;;12.20;99.90;;;;;;5077023;28;20060;-33
2022/10/18 08:56:22;;;;;;;21.88;5.80;;;12.40;99.90;;;;;;5076946;28;20414;-32
2022/10/18 08:58:49;;;;;;;21.80;4.90;;;12.60;99.90;;;;;;5077110;28;20048;-32
2022/10/18 09:01:29;;;;;;;19.30;5.03;;;12.70;99.90;;;;;;5077099;28;20047;-32
2022/10/18 09:04:33;;;;;;;18.30;4.85;;;12.80;99.90;;;;;;5077189;28;20189;-32
2022/10/18 09:07:25;;;;;;;16.15;4.13;;;12.90;99.90;;;;;;5077121;28;20091;-31
2022/10/18 09:10:32;;;;;;;21.67;3.40;;;14.20;99.90;;;;;;5077621;28;20429;-31
2022/10/18 09:13:25;;;;;;;19.48;3.63;;;;;;;;;;5059923;28;20436;-33
2022/10/18 09:16:03;;;;;;;13.90;2.42;;;14.60;99.90;;;;;;5076924;28;20046;-31
2022/10/18 09:18:32;;;;;;;15.20;2.88;;;15.00;99.90;;;;;;5076778;28;20093;-32
2022/10/18 09:21:04;;;;;;;11.45;1.70;;;15.30;99.90;;;;;;5075812;28;20060;-32
2022/10/18 09:23:43;;;;;;;12.02;2.22;;;15.60;99.90;;;;;;5075894;28;20437;-31
2022/10/18 09:26:21;;;;;;;13.05;3.35;;;16.00;99.90;;;;;;5077571;28;20050;-31
2022/10/18 09:28:59;;;;;;;14.70;2.00;;;16.10;99.90;;;;;;5076973;28;20037;-30
2022/10/18 09:32:03;;;;;;;19.13;2.67;;;16.30;99.90;;;;;;5075297;28;20101;-31
2022/10/18 09:34:41;;;;;;;17.95;2.63;;;16.40;99.90;;;;;;5065347;28;20057;-30
2022/10/18 09:37:16;;;;;;;25.85;3.22;;;16.70;99.90;;;;;;5076943;28;20044;-30
2022/10/18 09:39:44;;;;;;;15.50;3.33;;;16.70;99.90;;;;;;5075458;28;20498;-29
2022/10/18 09:42:38;;;;;;;13.98;3.08;;;16.80;99.90;;;;;;5076674;28;20482;-29
2022/10/18 09:45:15;;;;;;;13.27;1.98;;;16.70;99.90;;;;;;5074687;28;20085;-30
2022/10/18 09:47:58;;;;;;;17.67;2.78;;;16.60;99.90;;;;;;5076334;28;20090;-31
2022/10/18 09:50:56;;;;;;;18.58;2.55;;;16.60;99.90;;;;;;5076029;28;20562;-30
2022/10/18 09:53:58;;;;;;;13.93;2.65;;;16.70;99.90;;;;;;5076135;28;20503;-29
2022/10/18 09:56:37;;;;;;;15.77;2.58;;;16.80;99.90;;;;;;5065558;28;20063;-30
2022/10/18 09:59:02;;;;;;;18.95;1.95;;;17.00;99.90;;;;;;5076097;28;20045;-29
2022/10/18 10:01:30;;;;;;;16.88;2.80;;;17.10;99.90;;;;;;5075989;28;20128;-28
2022/10/18 10:03:56;;;;;;;13.02;2.05;;;17.20;99.90;;;;;;5075976;28;20052;-29
2022/10/18 10:06:30;;;;;;;14.70;2.47;;;17.30;99.90;;;;;;5076751;28;20049;-30
2022/10/18 10:08:56;;;;;;;11.70;1.80;;;17.30;99.90;;;;;;5075966;28;20049;-28
2022/10/18 10:11:37;;;;;;;8.65;2.08;;;17.20;99.90;;;;;;5075712;28;20048;-29
2022/10/18 10:14:11;;;;;;;14.13;2.38;;;17.30;99.90;;;;;;5076371;28;20048;-29
2022/10/18 10:16:48;;;;;;;17.88;2.33;;;17.40;99.90;;;;;;5075685;28;20067;-29
2022/10/18 10:19:53;;;;;;;11.00;2.25;;;17.30;99.90;;;;;;5075313;28;20105;-29
2022/10/18 10:22:35;;;;;;;12.35;2.83;;;17.50;17.60;;;;;;5075696;28;20048;-28
2022/10/18 10:25:01;;;;;;;12.88;2.70;;;17.70;99.90;;;;;;5075943;28;20127;-28
2022/10/18 10:27:42;;;;;;;12.32;1.67;;;17.50;99.90;;;;;;5075232;28;20589;-27
2022/10/18 10:30:36;;;;;;;10.48;1.83;;;16.80;1.00;;;;;;5075509;28;20088;-28
2022/10/18 10:33:02;;;;;;;13.68;1.83;;;16.30;99.90;;;;;;5076312;28;20137;-29
2022/10/18 10:35:28;;;;;;;13.73;1.60;;;16.60;1.00;;;;;;5075401;28;20407;-28
2022/10/18 10:37:54;;;;;;;10.60;1.75;;;17.20;99.90;;;;;;5074669;28;20043;-28
2022/10/18 10:40:49;;;;;;;11.13;1.83;;;17.40;99.90;;;;;;5074148;28;20098;-28
2022/10/18 10:43:28;;;;;;;11.50;1.95;;;16.90;99.90;;;;;;5074891;28;20368;-28
2022/10/18 10:46:02;;;;;;;13.00;1.80;;;16.80;99.90;;;;;;5075174;28;20050;-28
2022/10/18 10:48:32;;;;;;;10.27;1.50;;;16.90;1.00;;;;;;5075631;28;20045;-28
2022/10/18 10:51:06;;;;;;;14.20;2.30;;;16.80;99.90;;;;;;5074771;28;20530;-28
2022/10/18 10:53:57;;;;;;;12.48;1.38;;;17.30;1.00;;;;;;5075251;28;20197;-29
2022/10/18 10:56:36;;;;;;;9.18;1.27;;;17.40;99.90;;;;;;5065218;28;20045;-28
2022/10/18 10:59:07;;;;;;;13.38;2.55;;;17.20;1.00;;;;;;5067911;28;21702;-28
2022/10/18 11:01:33;;;;;;;9.65;1.58;;;16.80;1.00;;;;;;5058372;28;20487;-28
2022/10/18 11:04:20;;;;;;;11.48;1.50;;;16.40;99.90;;;;;;5054391;28;20053;-28
2022/10/18 11:06:52;;;;;;;15.70;2.63;;;16.20;1.00;;;;;;5054830;28;20097;-28
2022/10/18 11:09:53;;;;;;;11.88;2.08;;;16.10;99.90;;;;;;5054767;28;20051;-28
2022/10/18 11:12:51;;;;;;;11.10;2.40;;;15.80;99.90;;;;;;5046159;28;20520;-27
2022/10/18 11:15:31;;;;;;;13.77;1.55;;;15.60;72.20;;;;;;5035069;28;20060;-29
2022/10/18 11:18:16;;;;;;;9.05;1.50;;;16.30;99.90;;;;;;5054478;28;20377;-28
2022/10/18 11:20:59;;;;;;;13.07;1.88;;;17.10;1.00;;;;;;5054585;28;20048;-28
2022/10/18 11:23:29;;;;;;;;;;;17.60;99.90;;;;;;5054247;28;20049;-28
2022/10/18 11:26:16;;;;;;;15.35;2.08;;;17.70;99.90;;;;;;5055042;28;20264;-28
2022/10/18 11:29:12;;;;;;;12.85;1.80;;;17.80;1.00;;;;;;5054442;28;20037;-28
2022/10/18 11:31:56;;;;;;;9.63;1.83;;;17.80;1.00;;;;;;5055190;28;20072;-28
2022/10/18 11:34:29;;;;;;;13.85;2.25;;;17.90;99.90;;;;;;5054856;28;20398;-28
2022/10/18 11:37:35;;;;;;;15.95;1.95;;;18.00;1.00;;;;;;5053351;28;20503;-28
2022/10/18 11:40:19;;;;;;;12.80;2.00;;;17.80;1.00;;;;;;5054460;28;20546;-28
2022/10/18 11:42:53;;;;;;;13.63;2.60;;;17.20;40.60;;;;;;5055028;28;20395;-29
2022/10/18 11:45:57;;;;;;;13.20;2.45;;;16.70;1.00;;;;;;5054163;28;20055;-28
2022/10/18 11:48:47;;;;;;;12.90;1.85;;;16.20;1.00;;;;;;5032662;28;20144;-28
2022/10/18 11:51:45;;;;;;;15.52;4.82;;;15.70;1.00;;;;;;5054311;28;20044;-27
2022/10/18 11:54:14;;;;;;;19.15;2.95;;;15.60;99.90;;;;;;5052203;28;20140;-28
2022/10/18 11:57:10;;;;;;;22.73;2.72;;;16.40;99.90;;;;;;5053914;28;20053;-28
2022/10/18 12:00:00;;;;;;;8.23;1.67;;;16.80;1.00;;;;;;5053814;28;20049;-29
2022/10/18 12:02:41;;;;;;;8.40;1.35;;;17.10;22.70;;;;;;5051262;28;20053;-29
2022/10/18 12:05:08;;;;;;;12.48;3.08;;;17.30;99.90;;;;;;5053763;28;20055;-28
2022/10/18 12:07:46;;;;;;;8.98;1.60;;;17.30;99.90;;;;;;5054078;28;20107;-28
2022/10/18 12:10:17;;;;;;;10.07;1.50;;;17.10;1.00;;;;;;5053989;28;20411;-28
2022/10/18 12:12:57;;;;;;;7.57;1.42;;;17.30;1.00;;;;;;5053716;28;20041;-28
2022/10/18 12:15:25;;;;;;;10.55;1.40;;;17.70;99.90;;;;;;5053718;28;20110;-30
2022/10/18 12:18:02;;;;;;;11.52;1.83;;;17.50;1.00;;;;;;5052337;28;20041;-28
2022/10/18 12:20:34;;;;;;;8.73;1.40;;;17.50;16.90;;;;;;5054485;28;20098;-28
2022/10/18 12:23:04;;;;;;;9.30;1.45;;;17.50;1.00;;;;;;5053545;28;20053;-28
2022/10/18 12:25:34;;;;;;;7.55;1.73;;;17.40;99.90;;;;;;5053549;28;20045;-28
2022/10/18 12:28:18;;;;;;;5.32;1.27;;;17.40;99.90;;;;;;5054015;28;20041;-28
2022/10/18 12:30:58;;;;;;;10.25;1.92;;;17.50;99.90;;;;;;5053514;28;20041;-28
2022/10/18 12:33:29;;;;;;;9.30;1.30;;;17.30;99.90;;;;;;5053226;28;20533;-28
2022/10/18 12:36:13;;;;;;;10.27;1.58;;;17.40;99.90;;;;;;5053467;28;20048;-28
2022/10/18 12:38:50;;;;;;;12.40;2.72;;;17.40;99.90;;;;;;5053953;28;20048;-29
2022/10/18 12:41:29;;;;;;;9.80;1.88;;;16.70;99.90;;;;;;5052301;28;20040;-28
2022/10/18 12:44:04;;;;;;;8.05;1.38;;;16.20;1.00;;;;;;5053144;28;20498;-28
2022/10/18 12:47:03;;;;;;;11.32;1.95;;;15.70;99.90;;;;;;5053406;28;20049;-27
2022/10/18 12:49:38;;;;;;;11.77;2.53;;;15.70;56.10;;;;;;5049008;28;20056;-28
2022/10/18 12:52:22;;;;;;;12.85;2.17;;;16.20;99.90;;;;;;5053438;28;20056;-28